Terminal Aerodrome Forecast
Issued by NWS

Home | Current Version | Previous Version | Text Only | Print | Product List | Glossary On
Versions: 1 2 3 4 5 6 7 8 9 10 11 12 13 14 15 16 17 18 19 20 21 22 23 24 25 26 27 28
000
FTUS43 KLOT 182333
TAFMDW
TAF
KMDW 182333Z 1900/2006 17015G22KT P6SM BKN250 WS020/20045KT
     FM190600 18012KT P6SM SCT020 BKN040
     FM190900 19008KT 3SM BR SCT008 OVC012
      TEMPO 1910/1913 1SM BR SCT004 OVC008
     FM191300 15006KT 1SM -SHRA BR OVC004
      TEMPO 1913/1917 1/2SM -DZ FG OVC002
     FM192000 20014G21KT 1 1/2SM -RA BR OVC004
     FM200000 19012G18KT 2SM -SHRA BR OVC006=

USA.gov is the U.S. government's official web portal to all federal, state and local government web resources and services.